PWSweather.com
Personal Weather Stations
Station Observations
K4FB1
Clubhouse Heritage, Lakeland, FL 33812

Clubhouse HeritageLakeland, FL 33812

Lat: 27.969224, Lon: -81.897769

Elevation: 145

Station Type: Davis Vantage Pro2

http://www.ClubhouseWX.com

High Low Average
Temperature 89.5°F31.9°C 71.6°F22.0°C 77.4°F25.2°C
Dew Point 78.9°F26.1°C 69.5°F20.8°C 73.7°F23.2°C
Winds 9.0 mph 14.5 kmh Calm Calm 3.0 mph ENE4.8 kmh ENE
Wind Gusts 17.0 mph27.4 kmh -- 7.0 mph11.3 kmh
Humidity 96% 67% 89%
Pressure 29.93 in1013.5 mb 29.78 in1008.5 mb -
Precipitation 2.46 in62.5 mm - -
Hour Temp Dew Point Humidity Winds Wind Gusts Pressure Precip Precip Rate Daily Precip Total
12:00 AM 75.5°F24.2°C 72.0°F22.2°C 89% 2.0 mph NE3.2 kmh NE 5.0 mph8.0 kmh 29.96 in1014.6 mb 0.00 in0.0 mm 0.00 in0.0 mm 0.00 in0.0 mm
12:05 AM 75.5°F24.2°C 72.0°F22.2°C 89% 2.0 mph NE3.2 kmh NE 4.0 mph6.4 kmh 29.96 in1014.6 mb 0.00 in0.0 mm 0.00 in0.0 mm 0.00 in0.0 mm
12:10 AM 75.4°F24.1°C 71.9°F22.2°C 89% 1.0 mph NE1.6 kmh NE 4.0 mph6.4 kmh 29.96 in1014.6 mb 0.00 in0.0 mm 0.00 in0.0 mm 0.00 in0.0 mm
12:15 AM 75.3°F24.1°C 72.2°F22.3°C 90% 2.0 mph NE3.2 kmh NE 6.0 mph9.7 kmh 29.95 in1014.2 mb 0.00 in0.0 mm 0.00 in0.0 mm 0.00 in0.0 mm
12:20 AM 75.2°F24.0°C 72.1°F22.3°C 90% 2.0 mph NE3.2 kmh NE 6.0 mph9.7 kmh 29.95 in1014.2 mb 0.00 in0.0 mm 0.00 in0.0 mm 0.00 in0.0 mm
12:25 AM 75.2°F24.0°C 72.1°F22.3°C 90% 2.0 mph ENE3.2 kmh ENE 4.0 mph6.4 kmh 29.95 in1014.2 mb 0.00 in0.0 mm 0.00 in0.0 mm 0.00 in0.0 mm
12:30 AM 75.2°F24.0°C 71.7°F22.1°C 89% 2.0 mph NE3.2 kmh NE 6.0 mph9.7 kmh 29.95 in1014.2 mb 0.00 in0.0 mm 0.00 in0.0 mm 0.00 in0.0 mm
12:35 AM 75.1°F23.9°C 72.0°F22.2°C 90% 2.0 mph NE3.2 kmh NE 6.0 mph9.7 kmh 29.94 in1013.9 mb 0.00 in0.0 mm 0.00 in0.0 mm 0.00 in0.0 mm
12:40 AM 75.1°F23.9°C 71.6°F22.0°C 89% 2.0 mph NE3.2 kmh NE 5.0 mph8.0 kmh 29.94 in1013.9 mb 0.00 in0.0 mm 0.00 in0.0 mm 0.00 in0.0 mm
12:45 AM 75.0°F23.9°C 71.5°F21.9°C 89% 2.0 mph NE3.2 kmh NE 5.0 mph8.0 kmh 29.94 in1013.9 mb 0.00 in0.0 mm 0.00 in0.0 mm 0.00 in0.0 mm
12:50 AM 74.9°F23.8°C 71.4°F21.9°C 89% 1.0 mph NE1.6 kmh NE 3.0 mph4.8 kmh 29.94 in1013.9 mb 0.00 in0.0 mm 0.00 in0.0 mm 0.00 in0.0 mm
12:55 AM 74.8°F23.8°C 71.7°F22.1°C 90% 1.0 mph NE1.6 kmh NE 3.0 mph4.8 kmh 29.94 in1013.9 mb 0.00 in0.0 mm 0.00 in0.0 mm 0.00 in0.0 mm
01:00 AM 74.7°F23.7°C 71.2°F21.8°C 89% Calm Calm 2.0 mph3.2 kmh 29.93 in1013.5 mb 0.00 in0.0 mm 0.00 in0.0 mm 0.00 in0.0 mm
01:05 AM 74.6°F23.7°C 71.5°F21.9°C 90% 1.0 mph NE1.6 kmh NE 5.0 mph8.0 kmh 29.93 in1013.5 mb 0.00 in0.0 mm 0.00 in0.0 mm 0.00 in0.0 mm
01:10 AM 74.5°F23.6°C 71.4°F21.9°C 90% 2.0 mph NE3.2 kmh NE 5.0 mph8.0 kmh 29.92 in1013.2 mb 0.00 in0.0 mm 0.00 in0.0 mm 0.00 in0.0 mm
01:15 AM 74.4°F23.6°C 71.3°F21.8°C 90% 2.0 mph NE3.2 kmh NE 4.0 mph6.4 kmh 29.92 in1013.2 mb 0.00 in0.0 mm 0.00 in0.0 mm 0.00 in0.0 mm
01:20 AM 74.4°F23.6°C 71.3°F21.8°C 90% 2.0 mph NE3.2 kmh NE 4.0 mph6.4 kmh 29.92 in1013.2 mb 0.00 in0.0 mm 0.00 in0.0 mm 0.00 in0.0 mm
01:25 AM 74.3°F23.5°C 71.2°F21.8°C 90% 1.0 mph NE1.6 kmh NE 5.0 mph8.0 kmh 29.92 in1013.2 mb 0.00 in0.0 mm 0.00 in0.0 mm 0.00 in0.0 mm
01:30 AM 74.3°F23.5°C 71.5°F21.9°C 91% 1.0 mph NE1.6 kmh NE 5.0 mph8.0 kmh 29.92 in1013.2 mb 0.00 in0.0 mm 0.00 in0.0 mm 0.00 in0.0 mm
01:35 AM 74.2°F23.4°C 71.4°F21.9°C 91% 2.0 mph NE3.2 kmh NE 5.0 mph8.0 kmh 29.92 in1013.2 mb 0.00 in0.0 mm 0.00 in0.0 mm 0.00 in0.0 mm
01:40 AM 74.3°F23.5°C 71.5°F21.9°C 91% 2.0 mph NE3.2 kmh NE 5.0 mph8.0 kmh 29.92 in1013.2 mb 0.00 in0.0 mm 0.00 in0.0 mm 0.00 in0.0 mm
01:45 AM 74.3°F23.5°C 71.5°F21.9°C 91% 2.0 mph NE3.2 kmh NE 5.0 mph8.0 kmh 29.92 in1013.2 mb 0.00 in0.0 mm 0.00 in0.0 mm 0.00 in0.0 mm
01:50 AM 74.3°F23.5°C 71.8°F22.1°C 92% 2.0 mph NE3.2 kmh NE 4.0 mph6.4 kmh 29.92 in1013.2 mb 0.00 in0.0 mm 0.00 in0.0 mm 0.00 in0.0 mm
01:55 AM 74.3°F23.5°C 71.8°F22.1°C 92% 2.0 mph NE3.2 kmh NE 4.0 mph6.4 kmh 29.91 in1012.9 mb 0.00 in0.0 mm 0.00 in0.0 mm 0.00 in0.0 mm
02:00 AM 74.3°F23.5°C 71.8°F22.1°C 92% 2.0 mph NE3.2 kmh NE 5.0 mph8.0 kmh 29.91 in1012.9 mb 0.00 in0.0 mm 0.00 in0.0 mm 0.00 in0.0 mm
02:05 AM 74.4°F23.6°C 71.9°F22.2°C 92% 3.0 mph NE4.8 kmh NE 9.0 mph14.5 kmh 29.91 in1012.9 mb 0.00 in0.0 mm 0.00 in0.0 mm 0.00 in0.0 mm
02:10 AM 74.4°F23.6°C 71.9°F22.2°C 92% 3.0 mph NE4.8 kmh NE 9.0 mph14.5 kmh 29.91 in1012.9 mb 0.00 in0.0 mm 0.00 in0.0 mm 0.00 in0.0 mm
02:15 AM 74.5°F23.6°C 72.0°F22.2°C 92% 3.0 mph NE4.8 kmh NE 7.0 mph11.3 kmh 29.91 in1012.9 mb 0.00 in0.0 mm 0.00 in0.0 mm 0.00 in0.0 mm
02:20 AM 74.5°F23.6°C 72.0°F22.2°C 92% 3.0 mph NE4.8 kmh NE 7.0 mph11.3 kmh 29.90 in1012.5 mb 0.00 in0.0 mm 0.00 in0.0 mm 0.00 in0.0 mm
02:25 AM 74.6°F23.7°C 72.1°F22.3°C 92% 3.0 mph NE4.8 kmh NE 7.0 mph11.3 kmh 29.90 in1012.5 mb 0.00 in0.0 mm 0.00 in0.0 mm 0.00 in0.0 mm
02:30 AM 74.7°F23.7°C 72.2°F22.3°C 92% 3.0 mph NE4.8 kmh NE 7.0 mph11.3 kmh 29.90 in1012.5 mb 0.00 in0.0 mm 0.00 in0.0 mm 0.00 in0.0 mm
02:35 AM 74.7°F23.7°C 72.2°F22.3°C 92% 3.0 mph NE4.8 kmh NE 6.0 mph9.7 kmh 29.90 in1012.5 mb 0.00 in0.0 mm 0.00 in0.0 mm 0.00 in0.0 mm
02:40 AM 74.8°F23.8°C 72.3°F22.4°C 92% 3.0 mph NE4.8 kmh NE 6.0 mph9.7 kmh 29.90 in1012.5 mb 0.00 in0.0 mm 0.00 in0.0 mm 0.00 in0.0 mm
02:45 AM 74.9°F23.8°C 72.4°F22.4°C 92% 3.0 mph NE4.8 kmh NE 9.0 mph14.5 kmh 29.90 in1012.5 mb 0.00 in0.0 mm 0.00 in0.0 mm 0.00 in0.0 mm
02:50 AM 74.9°F23.8°C 72.4°F22.4°C 92% 2.0 mph NE3.2 kmh NE 9.0 mph14.5 kmh 29.90 in1012.5 mb 0.00 in0.0 mm 0.00 in0.0 mm 0.00 in0.0 mm
02:55 AM 75.0°F23.9°C 72.5°F22.5°C 92% 2.0 mph NE3.2 kmh NE 7.0 mph11.3 kmh 29.89 in1012.2 mb 0.00 in0.0 mm 0.00 in0.0 mm 0.00 in0.0 mm
03:00 AM 75.0°F23.9°C 72.5°F22.5°C 92% 2.0 mph NE3.2 kmh NE 7.0 mph11.3 kmh 29.89 in1012.2 mb 0.00 in0.0 mm 0.00 in0.0 mm 0.00 in0.0 mm
03:05 AM 75.1°F23.9°C 72.6°F22.6°C 92% 2.0 mph NE3.2 kmh NE 6.0 mph9.7 kmh 29.89 in1012.2 mb 0.00 in0.0 mm 0.00 in0.0 mm 0.00 in0.0 mm
03:10 AM 75.2°F24.0°C 72.7°F22.6°C 92% 3.0 mph NE4.8 kmh NE 7.0 mph11.3 kmh 29.89 in1012.2 mb 0.00 in0.0 mm 0.00 in0.0 mm 0.00 in0.0 mm
03:15 AM 75.2°F24.0°C 72.7°F22.6°C 92% 3.0 mph NE4.8 kmh NE 7.0 mph11.3 kmh 29.89 in1012.2 mb 0.00 in0.0 mm 0.00 in0.0 mm 0.00 in0.0 mm
03:20 AM 75.3°F24.1°C 72.8°F22.7°C 92% 3.0 mph NE4.8 kmh NE 9.0 mph14.5 kmh 29.88 in1011.9 mb 0.00 in0.0 mm 0.00 in0.0 mm 0.00 in0.0 mm
03:25 AM 75.3°F24.1°C 72.8°F22.7°C 92% 4.0 mph NE6.4 kmh NE 9.0 mph14.5 kmh 29.88 in1011.9 mb 0.00 in0.0 mm 0.00 in0.0 mm 0.00 in0.0 mm
03:30 AM 75.4°F24.1°C 72.6°F22.6°C 91% 4.0 mph NE6.4 kmh NE 10.0 mph16.1 kmh 29.88 in1011.9 mb 0.00 in0.0 mm 0.00 in0.0 mm 0.00 in0.0 mm
03:35 AM 75.4°F24.1°C 72.6°F22.6°C 91% 4.0 mph NE6.4 kmh NE 10.0 mph16.1 kmh 29.88 in1011.9 mb 0.00 in0.0 mm 0.00 in0.0 mm 0.00 in0.0 mm
03:40 AM 75.5°F24.2°C 72.7°F22.6°C 91% 3.0 mph NE4.8 kmh NE 9.0 mph14.5 kmh 29.88 in1011.9 mb 0.00 in0.0 mm 0.00 in0.0 mm 0.00 in0.0 mm
03:45 AM 75.4°F24.1°C 72.6°F22.6°C 91% 3.0 mph NE4.8 kmh NE 11.0 mph17.7 kmh 29.88 in1011.9 mb 0.00 in0.0 mm 0.00 in0.0 mm 0.00 in0.0 mm
03:50 AM 75.5°F24.2°C 72.7°F22.6°C 91% 3.0 mph NE4.8 kmh NE 11.0 mph17.7 kmh 29.88 in1011.9 mb 0.00 in0.0 mm 0.00 in0.0 mm 0.00 in0.0 mm
03:55 AM 75.5°F24.2°C 72.7°F22.6°C 91% 3.0 mph NE4.8 kmh NE 8.0 mph12.9 kmh 29.88 in1011.9 mb 0.00 in0.0 mm 0.00 in0.0 mm 0.00 in0.0 mm
04:00 AM 75.4°F24.1°C 72.6°F22.6°C 91% 3.0 mph NE4.8 kmh NE 8.0 mph12.9 kmh 29.88 in1011.9 mb 0.00 in0.0 mm 0.00 in0.0 mm 0.00 in0.0 mm
04:05 AM 75.4°F24.1°C 72.6°F22.6°C 91% 3.0 mph NE4.8 kmh NE 8.0 mph12.9 kmh 29.87 in1011.5 mb 0.00 in0.0 mm 0.00 in0.0 mm 0.00 in0.0 mm
04:10 AM 75.4°F24.1°C 72.6°F22.6°C 91% 3.0 mph NE4.8 kmh NE 7.0 mph11.3 kmh 29.87 in1011.5 mb 0.00 in0.0 mm 0.00 in0.0 mm 0.00 in0.0 mm
04:15 AM 75.4°F24.1°C 72.6°F22.6°C 91% 2.0 mph NE3.2 kmh NE 6.0 mph9.7 kmh 29.87 in1011.5 mb 0.00 in0.0 mm 0.00 in0.0 mm 0.00 in0.0 mm
04:20 AM 75.3°F24.1°C 72.5°F22.5°C 91% 3.0 mph NE4.8 kmh NE 7.0 mph11.3 kmh 29.87 in1011.5 mb 0.00 in0.0 mm 0.00 in0.0 mm 0.00 in0.0 mm
04:25 AM 75.3°F24.1°C 72.5°F22.5°C 91% 3.0 mph NE4.8 kmh NE 7.0 mph11.3 kmh 29.87 in1011.5 mb 0.00 in0.0 mm 0.00 in0.0 mm 0.00 in0.0 mm
04:30 AM 75.3°F24.1°C 72.5°F22.5°C 91% 3.0 mph NE4.8 kmh NE 6.0 mph9.7 kmh 29.87 in1011.5 mb 0.00 in0.0 mm 0.00 in0.0 mm 0.00 in0.0 mm
04:35 AM 75.3°F24.1°C 72.5°F22.5°C 91% 3.0 mph NE4.8 kmh NE 6.0 mph9.7 kmh 29.87 in1011.5 mb 0.00 in0.0 mm 0.00 in0.0 mm 0.00 in0.0 mm
04:40 AM 75.3°F24.1°C 72.5°F22.5°C 91% 3.0 mph NE4.8 kmh NE 7.0 mph11.3 kmh 29.87 in1011.5 mb 0.00 in0.0 mm 0.00 in0.0 mm 0.00 in0.0 mm
04:45 AM 75.3°F24.1°C 72.5°F22.5°C 91% 3.0 mph NE4.8 kmh NE 7.0 mph11.3 kmh 29.87 in1011.5 mb 0.00 in0.0 mm 0.00 in0.0 mm 0.00 in0.0 mm
04:50 AM 75.2°F24.0°C 72.4°F22.4°C 91% 4.0 mph NE6.4 kmh NE 9.0 mph14.5 kmh 29.87 in1011.5 mb 0.00 in0.0 mm 0.00 in0.0 mm 0.00 in0.0 mm
04:55 AM 75.3°F24.1°C 72.5°F22.5°C 91% 3.0 mph NE4.8 kmh NE 9.0 mph14.5 kmh 29.87 in1011.5 mb 0.00 in0.0 mm 0.00 in0.0 mm 0.00 in0.0 mm
05:00 AM 75.3°F24.1°C 72.5°F22.5°C 91% 3.0 mph NE4.8 kmh NE 7.0 mph11.3 kmh 29.87 in1011.5 mb 0.00 in0.0 mm 0.00 in0.0 mm 0.00 in0.0 mm
05:05 AM 75.3°F24.1°C 72.5°F22.5°C 91% 3.0 mph NE4.8 kmh NE 9.0 mph14.5 kmh 29.87 in1011.5 mb 0.00 in0.0 mm 0.00 in0.0 mm 0.00 in0.0 mm
05:10 AM 75.2°F24.0°C 72.4°F22.4°C 91% 3.0 mph NE4.8 kmh NE 9.0 mph14.5 kmh 29.86 in1011.2 mb 0.00 in0.0 mm 0.00 in0.0 mm 0.00 in0.0 mm
05:15 AM 75.2°F24.0°C 72.4°F22.4°C 91% 2.0 mph NNE3.2 kmh NNE 7.0 mph11.3 kmh 29.86 in1011.2 mb 0.00 in0.0 mm 0.00 in0.0 mm 0.00 in0.0 mm
05:20 AM 75.2°F24.0°C 72.4°F22.4°C 91% 2.0 mph NE3.2 kmh NE 5.0 mph8.0 kmh 29.86 in1011.2 mb 0.00 in0.0 mm 0.00 in0.0 mm 0.00 in0.0 mm
05:25 AM 75.1°F23.9°C 72.6°F22.6°C 92% 2.0 mph NE3.2 kmh NE 5.0 mph8.0 kmh 29.86 in1011.2 mb 0.00 in0.0 mm 0.00 in0.0 mm 0.00 in0.0 mm
05:30 AM 75.1°F23.9°C 72.6°F22.6°C 92% 2.0 mph NE3.2 kmh NE 7.0 mph11.3 kmh 29.86 in1011.2 mb 0.00 in0.0 mm 0.00 in0.0 mm 0.00 in0.0 mm
05:35 AM 75.1°F23.9°C 72.6°F22.6°C 92% 2.0 mph ENE3.2 kmh ENE 7.0 mph11.3 kmh 29.87 in1011.5 mb 0.00 in0.0 mm 0.00 in0.0 mm 0.00 in0.0 mm
05:40 AM 75.1°F23.9°C 72.6°F22.6°C 92% 1.0 mph ENE1.6 kmh ENE 5.0 mph8.0 kmh 29.86 in1011.2 mb 0.00 in0.0 mm 0.00 in0.0 mm 0.00 in0.0 mm
05:45 AM 75.1°F23.9°C 72.6°F22.6°C 92% 2.0 mph ENE3.2 kmh ENE 8.0 mph12.9 kmh 29.87 in1011.5 mb 0.00 in0.0 mm 0.00 in0.0 mm 0.00 in0.0 mm
05:50 AM 75.1°F23.9°C 72.6°F22.6°C 92% 2.0 mph ENE3.2 kmh ENE 8.0 mph12.9 kmh 29.87 in1011.5 mb 0.00 in0.0 mm 0.00 in0.0 mm 0.00 in0.0 mm
05:55 AM 75.1°F23.9°C 72.6°F22.6°C 92% 2.0 mph E3.2 kmh E 5.0 mph8.0 kmh 29.87 in1011.5 mb 0.00 in0.0 mm 0.00 in0.0 mm 0.00 in0.0 mm
06:00 AM 75.2°F24.0°C 72.7°F22.6°C 92% 3.0 mph NE4.8 kmh NE 7.0 mph11.3 kmh 29.87 in1011.5 mb 0.00 in0.0 mm 0.00 in0.0 mm 0.00 in0.0 mm
06:05 AM 75.3°F24.1°C 72.5°F22.5°C 91% 3.0 mph NE4.8 kmh NE 7.0 mph11.3 kmh 29.87 in1011.5 mb 0.00 in0.0 mm 0.00 in0.0 mm 0.00 in0.0 mm
06:10 AM 75.3°F24.1°C 72.5°F22.5°C 91% 2.0 mph ENE3.2 kmh ENE 6.0 mph9.7 kmh 29.87 in1011.5 mb 0.00 in0.0 mm 0.00 in0.0 mm 0.00 in0.0 mm
06:15 AM 75.3°F24.1°C 72.5°F22.5°C 91% 3.0 mph ENE4.8 kmh ENE 7.0 mph11.3 kmh 29.87 in1011.5 mb 0.00 in0.0 mm 0.00 in0.0 mm 0.00 in0.0 mm
06:20 AM 75.3°F24.1°C 72.5°F22.5°C 91% 3.0 mph ENE4.8 kmh ENE 8.0 mph12.9 kmh 29.87 in1011.5 mb 0.00 in0.0 mm 0.00 in0.0 mm 0.00 in0.0 mm
06:25 AM 75.3°F24.1°C 72.5°F22.5°C 91% 3.0 mph ENE4.8 kmh ENE 8.0 mph12.9 kmh 29.87 in1011.5 mb 0.00 in0.0 mm 0.00 in0.0 mm 0.00 in0.0 mm
06:30 AM 75.2°F24.0°C 72.4°F22.4°C 91% 2.0 mph ENE3.2 kmh ENE 5.0 mph8.0 kmh 29.87 in1011.5 mb 0.00 in0.0 mm 0.00 in0.0 mm 0.00 in0.0 mm
06:35 AM 75.1°F23.9°C 72.3°F22.4°C 91% 2.0 mph ENE3.2 kmh ENE 4.0 mph6.4 kmh 29.87 in1011.5 mb 0.00 in0.0 mm 0.00 in0.0 mm 0.00 in0.0 mm
06:40 AM 75.1°F23.9°C 72.3°F22.4°C 91% 2.0 mph NE3.2 kmh NE 4.0 mph6.4 kmh 29.88 in1011.9 mb 0.00 in0.0 mm 0.00 in0.0 mm 0.00 in0.0 mm
06:45 AM 75.0°F23.9°C 72.5°F22.5°C 92% 2.0 mph NE3.2 kmh NE 5.0 mph8.0 kmh 29.88 in1011.9 mb 0.00 in0.0 mm 0.00 in0.0 mm 0.00 in0.0 mm
06:50 AM 75.0°F23.9°C 72.5°F22.5°C 92% 2.0 mph NE3.2 kmh NE 5.0 mph8.0 kmh 29.88 in1011.9 mb 0.00 in0.0 mm 0.00 in0.0 mm 0.00 in0.0 mm
06:55 AM 74.9°F23.8°C 72.4°F22.4°C 92% 2.0 mph NE3.2 kmh NE 5.0 mph8.0 kmh 29.88 in1011.9 mb 0.00 in0.0 mm 0.00 in0.0 mm 0.00 in0.0 mm
07:00 AM 74.9°F23.8°C 72.4°F22.4°C 92% 2.0 mph NE3.2 kmh NE 5.0 mph8.0 kmh 29.88 in1011.9 mb 0.00 in0.0 mm 0.00 in0.0 mm 0.00 in0.0 mm
07:05 AM 74.9°F23.8°C 72.4°F22.4°C 92% 2.0 mph ENE3.2 kmh ENE 8.0 mph12.9 kmh 29.88 in1011.9 mb 0.00 in0.0 mm 0.00 in0.0 mm 0.00 in0.0 mm
07:10 AM 74.9°F23.8°C 72.4°F22.4°C 92% 3.0 mph E4.8 kmh E 8.0 mph12.9 kmh 29.88 in1011.9 mb 0.00 in0.0 mm 0.00 in0.0 mm 0.00 in0.0 mm
07:15 AM 74.8°F23.8°C 72.3°F22.4°C 92% 3.0 mph ENE4.8 kmh ENE 7.0 mph11.3 kmh 29.88 in1011.9 mb 0.00 in0.0 mm 0.00 in0.0 mm 0.00 in0.0 mm
07:20 AM 74.8°F23.8°C 72.3°F22.4°C 92% 3.0 mph ENE4.8 kmh ENE 11.0 mph17.7 kmh 29.88 in1011.9 mb 0.00 in0.0 mm 0.00 in0.0 mm 0.00 in0.0 mm
07:25 AM 74.8°F23.8°C 72.3°F22.4°C 92% 3.0 mph ENE4.8 kmh ENE 11.0 mph17.7 kmh 29.88 in1011.9 mb 0.00 in0.0 mm 0.00 in0.0 mm 0.00 in0.0 mm
07:30 AM 74.8°F23.8°C 72.3°F22.4°C 92% 2.0 mph ENE3.2 kmh ENE 4.0 mph6.4 kmh 29.88 in1011.9 mb 0.00 in0.0 mm 0.00 in0.0 mm 0.00 in0.0 mm
07:35 AM 74.8°F23.8°C 72.3°F22.4°C 92% 2.0 mph ENE3.2 kmh ENE 6.0 mph9.7 kmh 29.88 in1011.9 mb 0.00 in0.0 mm 0.00 in0.0 mm 0.00 in0.0 mm
07:40 AM 74.8°F23.8°C 72.3°F22.4°C 92% 2.0 mph ENE3.2 kmh ENE 6.0 mph9.7 kmh 29.89 in1012.2 mb 0.00 in0.0 mm 0.00 in0.0 mm 0.00 in0.0 mm
07:45 AM 74.9°F23.8°C 72.4°F22.4°C 92% 2.0 mph ENE3.2 kmh ENE 9.0 mph14.5 kmh 29.89 in1012.2 mb 0.00 in0.0 mm 0.00 in0.0 mm 0.00 in0.0 mm
07:50 AM 74.9°F23.8°C 72.4°F22.4°C 92% 2.0 mph ENE3.2 kmh ENE 9.0 mph14.5 kmh 29.89 in1012.2 mb 0.00 in0.0 mm 0.00 in0.0 mm 0.00 in0.0 mm
07:55 AM 75.0°F23.9°C 72.5°F22.5°C 92% 2.0 mph ENE3.2 kmh ENE 8.0 mph12.9 kmh 29.89 in1012.2 mb 0.00 in0.0 mm 0.00 in0.0 mm 0.00 in0.0 mm
08:00 AM 75.0°F23.9°C 72.5°F22.5°C 92% 2.0 mph ENE3.2 kmh ENE 8.0 mph12.9 kmh 29.89 in1012.2 mb 0.00 in0.0 mm 0.00 in0.0 mm 0.00 in0.0 mm
08:05 AM 75.1°F23.9°C 72.6°F22.6°C 92% 2.0 mph E3.2 kmh E 7.0 mph11.3 kmh 29.89 in1012.2 mb 0.00 in0.0 mm 0.00 in0.0 mm 0.00 in0.0 mm
08:10 AM 75.2°F24.0°C 72.7°F22.6°C 92% 2.0 mph E3.2 kmh E 4.0 mph6.4 kmh 29.89 in1012.2 mb 0.00 in0.0 mm 0.00 in0.0 mm 0.00 in0.0 mm
08:15 AM 75.2°F24.0°C 72.7°F22.6°C 92% 2.0 mph E3.2 kmh E 7.0 mph11.3 kmh 29.90 in1012.5 mb 0.01 in0.3 mm 0.12 in3.0 mm 0.01 in0.3 mm
08:20 AM 75.2°F24.0°C 72.7°F22.6°C 92% 4.0 mph ESE6.4 kmh ESE 11.0 mph17.7 kmh 29.90 in1012.5 mb 0.02 in0.5 mm 0.12 in3.0 mm 0.02 in0.5 mm
08:25 AM 74.9°F23.8°C 72.1°F22.3°C 91% 5.0 mph SE8.0 kmh SE 12.0 mph19.3 kmh 29.90 in1012.5 mb 0.02 in0.5 mm 0.00 in0.0 mm 0.02 in0.5 mm
08:30 AM 74.6°F23.7°C 72.1°F22.3°C 92% 5.0 mph SE8.0 kmh SE 12.0 mph19.3 kmh 29.90 in1012.5 mb 0.03 in0.8 mm 0.12 in3.0 mm 0.03 in0.8 mm
08:35 AM 74.4°F23.6°C 71.9°F22.2°C 92% 4.0 mph SE6.4 kmh SE 12.0 mph19.3 kmh 29.90 in1012.5 mb 0.03 in0.8 mm 0.00 in0.0 mm 0.03 in0.8 mm
08:40 AM 74.2°F23.4°C 72.0°F22.2°C 93% 2.0 mph ESE3.2 kmh ESE 6.0 mph9.7 kmh 29.90 in1012.5 mb 0.03 in0.8 mm 0.00 in0.0 mm 0.03 in0.8 mm
08:45 AM 74.1°F23.4°C 71.9°F22.2°C 93% 4.0 mph SE6.4 kmh SE 16.0 mph25.7 kmh 29.91 in1012.9 mb 0.05 in1.3 mm 0.24 in6.1 mm 0.05 in1.3 mm
08:50 AM 73.7°F23.2°C 71.5°F21.9°C 93% 7.0 mph SE11.3 kmh SE 16.0 mph25.7 kmh 29.91 in1012.9 mb 0.08 in2.0 mm 0.36 in9.1 mm 0.08 in2.0 mm
08:55 AM 73.3°F22.9°C 71.2°F21.8°C 93% 8.0 mph SE12.9 kmh SE 15.0 mph24.1 kmh 29.91 in1012.9 mb 0.09 in2.3 mm 0.12 in3.0 mm 0.09 in2.3 mm
09:00 AM 72.9°F22.7°C 70.8°F21.6°C 93% 9.0 mph SE14.5 kmh SE 15.0 mph24.1 kmh 29.91 in1012.9 mb 0.12 in3.0 mm 0.03 in0.8 mm 0.12 in3.0 mm
09:05 AM 72.4°F22.4°C 70.3°F21.3°C 93% 8.0 mph SE12.9 kmh SE 15.0 mph24.1 kmh 29.91 in1012.9 mb 0.28 in7.1 mm 1.92 in48.8 mm 0.28 in7.1 mm
09:10 AM 71.9°F22.2°C 69.8°F21.0°C 93% 8.0 mph SE12.9 kmh SE 16.0 mph25.7 kmh 29.91 in1012.9 mb 0.34 in8.6 mm 0.72 in18.3 mm 0.34 in8.6 mm
09:15 AM 71.7°F22.1°C 69.6°F20.9°C 93% 7.0 mph SSE11.3 kmh SSE 16.0 mph25.7 kmh 29.91 in1012.9 mb 0.43 in10.9 mm 1.08 in27.4 mm 0.44 in11.2 mm
09:20 AM 71.6°F22.0°C 69.5°F20.8°C 93% 7.0 mph SSE11.3 kmh SSE 12.0 mph19.3 kmh 29.91 in1012.9 mb 0.47 in11.9 mm 0.48 in12.2 mm 0.49 in12.4 mm
09:25 AM 71.6°F22.0°C 69.5°F20.8°C 93% 5.0 mph SSE8.0 kmh SSE 12.0 mph19.3 kmh 29.91 in1012.9 mb 0.47 in11.9 mm 0.00 in0.0 mm 0.49 in12.4 mm
09:30 AM 71.7°F22.1°C 69.9°F21.1°C 94% 3.0 mph SE4.8 kmh SE 5.0 mph8.0 kmh 29.91 in1012.9 mb 0.46 in11.7 mm 0.00 in0.0 mm 0.49 in12.4 mm
09:35 AM 71.9°F22.2°C 70.1°F21.2°C 94% 1.0 mph SSE1.6 kmh SSE 4.0 mph6.4 kmh 29.91 in1012.9 mb 0.47 in11.9 mm 0.12 in3.0 mm 0.50 in12.7 mm
09:40 AM 72.3°F22.4°C 70.8°F21.6°C 95% 1.0 mph SSE1.6 kmh SSE 2.0 mph3.2 kmh 29.91 in1012.9 mb 0.46 in11.7 mm 0.00 in0.0 mm 0.50 in12.7 mm
09:45 AM 72.5°F22.5°C 71.0°F21.7°C 95% 1.0 mph SSE1.6 kmh SSE 2.0 mph3.2 kmh 29.91 in1012.9 mb 0.44 in11.2 mm 0.00 in0.0 mm 0.50 in12.7 mm
09:50 AM 72.7°F22.6°C 71.2°F21.8°C 95% 1.0 mph SSE1.6 kmh SSE 2.0 mph3.2 kmh 29.91 in1012.9 mb 0.42 in10.7 mm 0.00 in0.0 mm 0.50 in12.7 mm
09:55 AM 72.9°F22.7°C 71.4°F21.9°C 95% 1.0 mph SSE1.6 kmh SSE 3.0 mph4.8 kmh 29.91 in1012.9 mb 0.41 in10.4 mm 0.00 in0.0 mm 0.50 in12.7 mm
10:00 AM 73.0°F22.8°C 71.2°F21.8°C 94% 1.0 mph SSE1.6 kmh SSE 3.0 mph4.8 kmh 29.91 in1012.9 mb 0.38 in9.7 mm 0.00 in0.0 mm 0.50 in12.7 mm
10:05 AM 73.0°F22.8°C 71.2°F21.8°C 94% 1.0 mph SSE1.6 kmh SSE 3.0 mph4.8 kmh 29.91 in1012.9 mb 0.22 in5.6 mm 0.00 in0.0 mm 0.50 in12.7 mm
10:10 AM 73.1°F22.8°C 71.3°F21.8°C 94% Calm Calm 2.0 mph3.2 kmh 29.90 in1012.5 mb 0.16 in4.1 mm 0.00 in0.0 mm 0.50 in12.7 mm
10:15 AM 73.1°F22.8°C 71.3°F21.8°C 94% Calm Calm 2.0 mph3.2 kmh 29.90 in1012.5 mb 0.04 in1.0 mm 0.00 in0.0 mm 0.50 in12.7 mm
10:20 AM 73.3°F22.9°C 71.5°F21.9°C 94% Calm Calm 2.0 mph3.2 kmh 29.90 in1012.5 mb 0.01 in0.3 mm 0.00 in0.0 mm 0.50 in12.7 mm
10:25 AM 73.3°F22.9°C 71.2°F21.8°C 93% Calm Calm 1.0 mph1.6 kmh 29.90 in1012.5 mb 0.01 in0.3 mm 0.00 in0.0 mm 0.50 in12.7 mm
10:30 AM 73.4°F23.0°C 71.6°F22.0°C 94% Calm Calm 1.0 mph1.6 kmh 29.90 in1012.5 mb 0.01 in0.3 mm 0.00 in0.0 mm 0.50 in12.7 mm
10:35 AM 73.6°F23.1°C 71.8°F22.1°C 94% Calm Calm 2.0 mph3.2 kmh 29.90 in1012.5 mb 0.00 in0.0 mm 0.00 in0.0 mm 0.50 in12.7 mm
10:40 AM 74.0°F23.3°C 72.2°F22.3°C 94% 1.0 mph SSE1.6 kmh SSE 2.0 mph3.2 kmh 29.90 in1012.5 mb 0.00 in0.0 mm 0.00 in0.0 mm 0.50 in12.7 mm
10:45 AM 74.8°F23.8°C 73.3°F22.9°C 95% 1.0 mph SSE1.6 kmh SSE 2.0 mph3.2 kmh 29.90 in1012.5 mb 0.00 in0.0 mm 0.00 in0.0 mm 0.50 in12.7 mm
10:50 AM 75.8°F24.3°C 74.6°F23.7°C 96% 2.0 mph SE3.2 kmh SE 4.0 mph6.4 kmh 29.90 in1012.5 mb 0.00 in0.0 mm 0.00 in0.0 mm 0.50 in12.7 mm
10:55 AM 76.4°F24.7°C 74.9°F23.8°C 95% 2.0 mph E3.2 kmh E 5.0 mph8.0 kmh 29.90 in1012.5 mb 0.00 in0.0 mm 0.00 in0.0 mm 0.50 in12.7 mm
11:00 AM 77.4°F25.2°C 76.2°F24.6°C 96% 2.0 mph NNE3.2 kmh NNE 5.0 mph8.0 kmh 29.90 in1012.5 mb 0.00 in0.0 mm 0.00 in0.0 mm 0.50 in12.7 mm
11:05 AM 78.4°F25.8°C 76.5°F24.7°C 94% 3.0 mph NNE4.8 kmh NNE 5.0 mph8.0 kmh 29.89 in1012.2 mb 0.00 in0.0 mm 0.00 in0.0 mm 0.50 in12.7 mm
11:10 AM 79.3°F26.3°C 77.1°F25.1°C 93% 3.0 mph NE4.8 kmh NE 7.0 mph11.3 kmh 29.90 in1012.5 mb 0.00 in0.0 mm 0.00 in0.0 mm 0.50 in12.7 mm
11:15 AM 80.1°F26.7°C 76.9°F24.9°C 90% 3.0 mph NNE4.8 kmh NNE 7.0 mph11.3 kmh 29.89 in1012.2 mb 0.00 in0.0 mm 0.00 in0.0 mm 0.50 in12.7 mm
11:20 AM 80.4°F26.9°C 76.5°F24.7°C 88% 3.0 mph NE4.8 kmh NE 6.0 mph9.7 kmh 29.90 in1012.5 mb 0.00 in0.0 mm 0.00 in0.0 mm 0.50 in12.7 mm
11:25 AM 80.4°F26.9°C 76.5°F24.7°C 88% 3.0 mph NE4.8 kmh NE 7.0 mph11.3 kmh 29.89 in1012.2 mb 0.00 in0.0 mm 0.00 in0.0 mm 0.50 in12.7 mm
11:30 AM 80.5°F26.9°C 76.3°F24.6°C 87% 3.0 mph NE4.8 kmh NE 7.0 mph11.3 kmh 29.90 in1012.5 mb 0.00 in0.0 mm 0.00 in0.0 mm 0.50 in12.7 mm
11:35 AM 80.6°F27.0°C 77.1°F25.1°C 89% 2.0 mph NE3.2 kmh NE 4.0 mph6.4 kmh 29.90 in1012.5 mb 0.00 in0.0 mm 0.00 in0.0 mm 0.50 in12.7 mm
11:40 AM 81.0°F27.2°C 76.8°F24.9°C 87% 2.0 mph NE3.2 kmh NE 4.0 mph6.4 kmh 29.89 in1012.2 mb 0.00 in0.0 mm 0.00 in0.0 mm 0.50 in12.7 mm
11:45 AM 81.4°F27.4°C 77.5°F25.3°C 88% 2.0 mph NE3.2 kmh NE 4.0 mph6.4 kmh 29.89 in1012.2 mb 0.00 in0.0 mm 0.00 in0.0 mm 0.50 in12.7 mm
11:50 AM 81.7°F27.6°C 77.5°F25.3°C 87% 1.0 mph ENE1.6 kmh ENE 4.0 mph6.4 kmh 29.89 in1012.2 mb 0.00 in0.0 mm 0.00 in0.0 mm 0.50 in12.7 mm
11:55 AM 82.1°F27.8°C 77.5°F25.3°C 86% 1.0 mph ENE1.6 kmh ENE 5.0 mph8.0 kmh 29.89 in1012.2 mb 0.00 in0.0 mm 0.00 in0.0 mm 0.50 in12.7 mm
12:00 PM 82.8°F28.2°C 77.8°F25.4°C 85% 3.0 mph E4.8 kmh E 6.0 mph9.7 kmh 29.89 in1012.2 mb 0.00 in0.0 mm 0.00 in0.0 mm 0.50 in12.7 mm
12:05 PM 83.2°F28.4°C 77.9°F25.5°C 84% 3.0 mph ESE4.8 kmh ESE 9.0 mph14.5 kmh 29.88 in1011.9 mb 0.00 in0.0 mm 0.00 in0.0 mm 0.50 in12.7 mm
12:10 PM 83.6°F28.7°C 78.2°F25.7°C 84% 3.0 mph SE4.8 kmh SE 9.0 mph14.5 kmh 29.88 in1011.9 mb 0.00 in0.0 mm 0.00 in0.0 mm 0.50 in12.7 mm
12:15 PM 84.3°F29.1°C 78.2°F25.7°C 82% 3.0 mph ESE4.8 kmh ESE 7.0 mph11.3 kmh 29.88 in1011.9 mb 0.00 in0.0 mm 0.00 in0.0 mm 0.50 in12.7 mm
12:20 PM 84.9°F29.4°C 78.0°F25.6°C 80% 3.0 mph E4.8 kmh E 8.0 mph12.9 kmh 29.88 in1011.9 mb 0.00 in0.0 mm 0.00 in0.0 mm 0.50 in12.7 mm
12:25 PM 85.2°F29.6°C 77.6°F25.3°C 78% 4.0 mph E6.4 kmh E 9.0 mph14.5 kmh 29.87 in1011.5 mb 0.00 in0.0 mm 0.00 in0.0 mm 0.50 in12.7 mm
12:30 PM 85.4°F29.7°C 77.8°F25.4°C 78% 4.0 mph ESE6.4 kmh ESE 9.0 mph14.5 kmh 29.87 in1011.5 mb 0.00 in0.0 mm 0.00 in0.0 mm 0.50 in12.7 mm
12:35 PM 85.8°F29.9°C 78.1°F25.6°C 78% 4.0 mph SE6.4 kmh SE 9.0 mph14.5 kmh 29.87 in1011.5 mb 0.00 in0.0 mm 0.00 in0.0 mm 0.50 in12.7 mm
12:40 PM 86.1°F30.1°C 78.4°F25.8°C 78% 3.0 mph SE4.8 kmh SE 7.0 mph11.3 kmh 29.86 in1011.2 mb 0.00 in0.0 mm 0.00 in0.0 mm 0.50 in12.7 mm
12:45 PM 86.4°F30.2°C 77.9°F25.5°C 76% 3.0 mph SE4.8 kmh SE 7.0 mph11.3 kmh 29.86 in1011.2 mb 0.00 in0.0 mm 0.00 in0.0 mm 0.50 in12.7 mm
12:50 PM 86.6°F30.3°C 77.7°F25.4°C 75% 3.0 mph E4.8 kmh E 9.0 mph14.5 kmh 29.86 in1011.2 mb 0.00 in0.0 mm 0.00 in0.0 mm 0.50 in12.7 mm
12:55 PM 86.7°F30.4°C 77.4°F25.2°C 74% 3.0 mph E4.8 kmh E 9.0 mph14.5 kmh 29.86 in1011.2 mb 0.00 in0.0 mm 0.00 in0.0 mm 0.50 in12.7 mm
01:00 PM 87.3°F30.7°C 78.8°F26.0°C 76% 3.0 mph ESE4.8 kmh ESE 7.0 mph11.3 kmh 29.86 in1011.2 mb 0.00 in0.0 mm 0.00 in0.0 mm 0.50 in12.7 mm
01:05 PM 88.2°F31.2°C 78.9°F26.1°C 74% 4.0 mph E6.4 kmh E 11.0 mph17.7 kmh 29.86 in1011.2 mb 0.00 in0.0 mm 0.00 in0.0 mm 0.50 in12.7 mm
01:10 PM 88.4°F31.3°C 78.2°F25.7°C 72% 4.0 mph E6.4 kmh E 11.0 mph17.7 kmh 29.85 in1010.8 mb 0.00 in0.0 mm 0.00 in0.0 mm 0.50 in12.7 mm
01:15 PM 88.3°F31.3°C 77.7°F25.4°C 71% 4.0 mph ESE6.4 kmh ESE 9.0 mph14.5 kmh 29.85 in1010.8 mb 0.00 in0.0 mm 0.00 in0.0 mm 0.50 in12.7 mm
01:20 PM 88.0°F31.1°C 77.4°F25.2°C 71% 3.0 mph SE4.8 kmh SE 8.0 mph12.9 kmh 29.85 in1010.8 mb 0.00 in0.0 mm 0.00 in0.0 mm 0.50 in12.7 mm
01:25 PM 88.1°F31.2°C 77.9°F25.5°C 72% 3.0 mph ESE4.8 kmh ESE 8.0 mph12.9 kmh 29.84 in1010.5 mb 0.00 in0.0 mm 0.00 in0.0 mm 0.50 in12.7 mm
01:30 PM 88.3°F31.3°C 77.3°F25.2°C 70% 3.0 mph NE4.8 kmh NE 7.0 mph11.3 kmh 29.84 in1010.5 mb 0.00 in0.0 mm 0.00 in0.0 mm 0.50 in12.7 mm
01:35 PM 88.6°F31.4°C 78.4°F25.8°C 72% 3.0 mph NE4.8 kmh NE 7.0 mph11.3 kmh 29.84 in1010.5 mb 0.00 in0.0 mm 0.00 in0.0 mm 0.50 in12.7 mm
01:40 PM 88.9°F31.6°C 77.0°F25.0°C 68% 3.0 mph NE4.8 kmh NE 6.0 mph9.7 kmh 29.83 in1010.2 mb 0.00 in0.0 mm 0.00 in0.0 mm 0.50 in12.7 mm
01:45 PM 88.9°F31.6°C 77.0°F25.0°C 68% 2.0 mph NE3.2 kmh NE 6.0 mph9.7 kmh 29.83 in1010.2 mb 0.00 in0.0 mm 0.00 in0.0 mm 0.50 in12.7 mm
01:50 PM 88.6°F31.4°C 76.7°F24.8°C 68% 2.0 mph ENE3.2 kmh ENE 4.0 mph6.4 kmh 29.83 in1010.2 mb 0.00 in0.0 mm 0.00 in0.0 mm 0.50 in12.7 mm
01:55 PM 88.6°F31.4°C 77.1°F25.1°C 69% 2.0 mph ENE3.2 kmh ENE 4.0 mph6.4 kmh 29.82 in1009.8 mb 0.00 in0.0 mm 0.00 in0.0 mm 0.50 in12.7 mm
02:00 PM 88.9°F31.6°C 77.0°F25.0°C 68% 2.0 mph ENE3.2 kmh ENE 4.0 mph6.4 kmh 29.82 in1009.8 mb 0.00 in0.0 mm 0.00 in0.0 mm 0.50 in12.7 mm
02:05 PM 89.1°F31.7°C 78.0°F25.6°C 70% 2.0 mph NE3.2 kmh NE 5.0 mph8.0 kmh 29.82 in1009.8 mb 0.00 in0.0 mm 0.00 in0.0 mm 0.50 in12.7 mm
02:10 PM 89.5°F31.9°C 78.0°F25.6°C 69% 4.0 mph N6.4 kmh N 10.0 mph16.1 kmh 29.82 in1009.8 mb 0.00 in0.0 mm 0.00 in0.0 mm 0.50 in12.7 mm
02:15 PM 89.2°F31.8°C 76.8°F24.9°C 67% 5.0 mph N8.0 kmh N 10.0 mph16.1 kmh 29.82 in1009.8 mb 0.00 in0.0 mm 0.00 in0.0 mm 0.50 in12.7 mm
02:20 PM 88.3°F31.3°C 76.8°F24.9°C 69% 4.0 mph N6.4 kmh N 10.0 mph16.1 kmh 29.82 in1009.8 mb 0.00 in0.0 mm 0.00 in0.0 mm 0.50 in12.7 mm
02:25 PM 87.6°F30.9°C 76.6°F24.8°C 70% 4.0 mph NNE6.4 kmh NNE 9.0 mph14.5 kmh 29.82 in1009.8 mb 0.00 in0.0 mm 0.00 in0.0 mm 0.50 in12.7 mm
02:30 PM 86.9°F30.5°C 76.4°F24.7°C 71% 4.0 mph NE6.4 kmh NE 11.0 mph17.7 kmh 29.82 in1009.8 mb 0.00 in0.0 mm 0.00 in0.0 mm 0.50 in12.7 mm
02:35 PM 85.4°F29.7°C 76.6°F24.8°C 75% 4.0 mph E6.4 kmh E 11.0 mph17.7 kmh 29.82 in1009.8 mb 0.05 in1.3 mm 0.60 in15.2 mm 0.55 in14.0 mm
02:40 PM 83.6°F28.7°C 76.4°F24.7°C 79% 3.0 mph SE4.8 kmh SE 9.0 mph14.5 kmh 29.82 in1009.8 mb 0.17 in4.3 mm 1.44 in36.6 mm 0.67 in17.0 mm
02:45 PM 82.1°F27.8°C 76.1°F24.5°C 82% 2.0 mph SW3.2 kmh SW 5.0 mph8.0 kmh 29.81 in1009.5 mb 0.24 in6.1 mm 0.84 in21.3 mm 0.74 in18.8 mm
02:50 PM 81.2°F27.3°C 75.9°F24.4°C 84% 1.0 mph SW1.6 kmh SW 3.0 mph4.8 kmh 29.81 in1009.5 mb 0.25 in6.4 mm 0.12 in3.0 mm 0.75 in19.1 mm
02:55 PM 81.1°F27.3°C 76.9°F24.9°C 87% 2.0 mph N3.2 kmh N 7.0 mph11.3 kmh 29.81 in1009.5 mb 0.26 in6.6 mm 0.12 in3.0 mm 0.76 in19.3 mm
03:00 PM 80.6°F27.0°C 75.0°F23.9°C 83% 3.0 mph NNE4.8 kmh NNE 9.0 mph14.5 kmh 29.81 in1009.5 mb 0.26 in6.6 mm 0.00 in0.0 mm 0.76 in19.3 mm
03:05 PM 80.4°F26.9°C 75.8°F24.3°C 86% 3.0 mph NNE4.8 kmh NNE 9.0 mph14.5 kmh 29.80 in1009.1 mb 0.26 in6.6 mm 0.00 in0.0 mm 0.76 in19.3 mm
03:10 PM 80.8°F27.1°C 76.6°F24.8°C 87% 2.0 mph NE3.2 kmh NE 7.0 mph11.3 kmh 29.80 in1009.1 mb 0.26 in6.6 mm 0.00 in0.0 mm 0.76 in19.3 mm
03:15 PM 81.6°F27.6°C 77.0°F25.0°C 86% 3.0 mph NE4.8 kmh NE 8.0 mph12.9 kmh 29.80 in1009.1 mb 0.26 in6.6 mm 0.00 in0.0 mm 0.76 in19.3 mm
03:20 PM 82.5°F28.1°C 77.2°F25.1°C 84% 3.0 mph NE4.8 kmh NE 8.0 mph12.9 kmh 29.79 in1008.8 mb 0.26 in6.6 mm 0.00 in0.0 mm 0.76 in19.3 mm
03:25 PM 83.2°F28.4°C 77.1°F25.1°C 82% 3.0 mph NNE4.8 kmh NNE 8.0 mph12.9 kmh 29.80 in1009.1 mb 0.26 in6.6 mm 0.00 in0.0 mm 0.76 in19.3 mm
03:30 PM 83.7°F28.7°C 76.9°F24.9°C 80% 3.0 mph NNE4.8 kmh NNE 6.0 mph9.7 kmh 29.80 in1009.1 mb 0.26 in6.6 mm 0.00 in0.0 mm 0.76 in19.3 mm
03:35 PM 84.3°F29.1°C 77.1°F25.1°C 79% 3.0 mph N4.8 kmh N 7.0 mph11.3 kmh 29.80 in1009.1 mb 0.21 in5.3 mm 0.00 in0.0 mm 0.76 in19.3 mm
03:40 PM 84.9°F29.4°C 77.7°F25.4°C 79% 2.0 mph N3.2 kmh N 7.0 mph11.3 kmh 29.79 in1008.8 mb 0.09 in2.3 mm 0.00 in0.0 mm 0.76 in19.3 mm
03:45 PM 85.6°F29.8°C 77.6°F25.3°C 77% 3.0 mph NNE4.8 kmh NNE 8.0 mph12.9 kmh 29.79 in1008.8 mb 0.02 in0.5 mm 0.00 in0.0 mm 0.76 in19.3 mm
03:50 PM 86.4°F30.2°C 78.3°F25.7°C 77% 4.0 mph NNE6.4 kmh NNE 9.0 mph14.5 kmh 29.79 in1008.8 mb 0.01 in0.3 mm 0.00 in0.0 mm 0.76 in19.3 mm
03:55 PM 86.9°F30.5°C 78.0°F25.6°C 75% 4.0 mph NE6.4 kmh NE 9.0 mph14.5 kmh 29.79 in1008.8 mb 0.00 in0.0 mm 0.00 in0.0 mm 0.76 in19.3 mm
04:00 PM 86.9°F30.5°C 77.6°F25.3°C 74% 4.0 mph NNE6.4 kmh NNE 9.0 mph14.5 kmh 29.79 in1008.8 mb 0.00 in0.0 mm 0.00 in0.0 mm 0.76 in19.3 mm
04:05 PM 86.7°F30.4°C 77.0°F25.0°C 73% 3.0 mph NE4.8 kmh NE 9.0 mph14.5 kmh 29.78 in1008.5 mb 0.00 in0.0 mm 0.00 in0.0 mm 0.76 in19.3 mm
04:10 PM 86.5°F30.3°C 77.6°F25.3°C 75% 3.0 mph NE4.8 kmh NE 7.0 mph11.3 kmh 29.78 in1008.5 mb 0.00 in0.0 mm 0.00 in0.0 mm 0.76 in19.3 mm
04:15 PM 86.4°F30.2°C 77.5°F25.3°C 75% 3.0 mph NNE4.8 kmh NNE 6.0 mph9.7 kmh 29.79 in1008.8 mb 0.00 in0.0 mm 0.00 in0.0 mm 0.76 in19.3 mm
04:20 PM 86.2°F30.1°C 77.3°F25.2°C 75% 2.0 mph N3.2 kmh N 5.0 mph8.0 kmh 29.79 in1008.8 mb 0.00 in0.0 mm 0.00 in0.0 mm 0.76 in19.3 mm
04:25 PM 86.0°F30.0°C 77.1°F25.1°C 75% 2.0 mph NNE3.2 kmh NNE 6.0 mph9.7 kmh 29.79 in1008.8 mb 0.00 in0.0 mm 0.00 in0.0 mm 0.76 in19.3 mm
04:30 PM 85.6°F29.8°C 76.8°F24.9°C 75% 3.0 mph E4.8 kmh E 16.0 mph25.7 kmh 29.80 in1009.1 mb 0.00 in0.0 mm 0.00 in0.0 mm 0.76 in19.3 mm
04:35 PM 82.7°F28.2°C 75.1°F23.9°C 78% 7.0 mph ESE11.3 kmh ESE 17.0 mph27.4 kmh 29.82 in1009.8 mb 0.25 in6.4 mm 3.00 in76.2 mm 1.01 in25.7 mm
04:40 PM 79.2°F26.2°C 73.6°F23.1°C 83% 9.0 mph SE14.5 kmh SE 17.0 mph27.4 kmh 29.82 in1009.8 mb 0.56 in14.2 mm 3.72 in94.5 mm 1.32 in33.5 mm
04:45 PM 77.5°F25.3°C 73.0°F22.8°C 86% 6.0 mph ESE9.7 kmh ESE 15.0 mph24.1 kmh 29.82 in1009.8 mb 0.92 in23.4 mm 4.32 in109.7 mm 1.68 in42.7 mm
04:50 PM 76.4°F24.7°C 72.6°F22.6°C 88% 4.0 mph ENE6.4 kmh ENE 9.0 mph14.5 kmh 29.82 in1009.8 mb 1.18 in30.0 mm 3.12 in79.2 mm 1.94 in49.3 mm
04:55 PM 75.5°F24.2°C 72.0°F22.2°C 89% 3.0 mph NE4.8 kmh NE 9.0 mph14.5 kmh 29.81 in1009.5 mb 1.36 in34.5 mm 2.16 in54.9 mm 2.12 in53.8 mm
05:00 PM 75.1°F23.9°C 72.0°F22.2°C 90% 2.0 mph N3.2 kmh N 6.0 mph9.7 kmh 29.81 in1009.5 mb 1.47 in37.3 mm 0.12 in3.0 mm 2.23 in56.6 mm
05:05 PM 74.9°F23.8°C 72.1°F22.3°C 91% 3.0 mph N4.8 kmh N 5.0 mph8.0 kmh 29.81 in1009.5 mb 1.52 in38.6 mm 0.60 in15.2 mm 2.28 in57.9 mm
05:10 PM 74.9°F23.8°C 72.4°F22.4°C 92% 3.0 mph NNW4.8 kmh NNW 5.0 mph8.0 kmh 29.80 in1009.1 mb 1.59 in40.4 mm 0.84 in21.3 mm 2.35 in59.7 mm
05:15 PM 74.9°F23.8°C 72.7°F22.6°C 93% 3.0 mph N4.8 kmh N 6.0 mph9.7 kmh 29.80 in1009.1 mb 1.67 in42.4 mm 0.96 in24.4 mm 2.43 in61.7 mm
05:20 PM 75.0°F23.9°C 72.8°F22.7°C 93% 3.0 mph N4.8 kmh N 6.0 mph9.7 kmh 29.80 in1009.1 mb 1.68 in42.7 mm 0.12 in3.0 mm 2.44 in62.0 mm
05:25 PM 75.1°F23.9°C 72.9°F22.7°C 93% 3.0 mph N4.8 kmh N 5.0 mph8.0 kmh 29.80 in1009.1 mb 1.68 in42.7 mm 0.00 in0.0 mm 2.44 in62.0 mm
05:30 PM 75.2°F24.0°C 73.0°F22.8°C 93% 3.0 mph N4.8 kmh N 7.0 mph11.3 kmh 29.81 in1009.5 mb 1.68 in42.7 mm 0.00 in0.0 mm 2.44 in62.0 mm
05:35 PM 75.3°F24.1°C 73.1°F22.8°C 93% 3.0 mph NE4.8 kmh NE 7.0 mph11.3 kmh 29.80 in1009.1 mb 1.38 in35.1 mm 0.00 in0.0 mm 2.44 in62.0 mm
05:40 PM 75.3°F24.1°C 73.1°F22.8°C 93% 3.0 mph ENE4.8 kmh ENE 7.0 mph11.3 kmh 29.81 in1009.5 mb 1.04 in26.4 mm 0.00 in0.0 mm 2.44 in62.0 mm
05:45 PM 75.4°F24.1°C 73.2°F22.9°C 93% 3.0 mph ENE4.8 kmh ENE 8.0 mph12.9 kmh 29.80 in1009.1 mb 0.76 in19.3 mm 0.00 in0.0 mm 2.44 in62.0 mm
05:50 PM 75.3°F24.1°C 72.8°F22.7°C 92% 4.0 mph ENE6.4 kmh ENE 9.0 mph14.5 kmh 29.80 in1009.1 mb 0.50 in12.7 mm 0.00 in0.0 mm 2.44 in62.0 mm
08:30 PM 74.8°F23.8°C 73.0°F22.8°C 94% 3.0 mph NNE4.8 kmh NNE 3.0 mph4.8 kmh 29.83 in1010.2 mb 0.00 in0.0 mm 0.00 in0.0 mm 2.45 in62.2 mm
08:35 PM 74.8°F23.8°C 73.0°F22.8°C 94% 3.0 mph NNE4.8 kmh NNE 7.0 mph11.3 kmh 29.83 in1010.2 mb 0.00 in0.0 mm 0.00 in0.0 mm 2.45 in62.2 mm
08:40 PM 74.8°F23.8°C 73.0°F22.8°C 94% 3.0 mph NNE4.8 kmh NNE 7.0 mph11.3 kmh 29.83 in1010.2 mb 0.00 in0.0 mm 0.00 in0.0 mm 2.45 in62.2 mm
08:45 PM 74.6°F23.7°C 72.4°F22.4°C 93% 3.0 mph NNE4.8 kmh NNE 8.0 mph12.9 kmh 29.84 in1010.5 mb 0.00 in0.0 mm 0.00 in0.0 mm 2.45 in62.2 mm
08:50 PM 74.6°F23.7°C 72.4°F22.4°C 93% 2.0 mph NNE3.2 kmh NNE 8.0 mph12.9 kmh 29.84 in1010.5 mb 0.00 in0.0 mm 0.00 in0.0 mm 2.45 in62.2 mm
08:55 PM 74.5°F23.6°C 72.3°F22.4°C 93% 3.0 mph NNE4.8 kmh NNE 7.0 mph11.3 kmh 29.84 in1010.5 mb 0.00 in0.0 mm 0.00 in0.0 mm 2.45 in62.2 mm
09:00 PM 74.4°F23.6°C 72.2°F22.3°C 93% 2.0 mph NNE3.2 kmh NNE 7.0 mph11.3 kmh 29.84 in1010.5 mb 0.00 in0.0 mm 0.00 in0.0 mm 2.45 in62.2 mm
09:05 PM 74.3°F23.5°C 72.1°F22.3°C 93% 1.0 mph NNE1.6 kmh NNE 3.0 mph4.8 kmh 29.84 in1010.5 mb 0.00 in0.0 mm 0.00 in0.0 mm 2.45 in62.2 mm
09:10 PM 74.2°F23.4°C 72.0°F22.2°C 93% 1.0 mph NNE1.6 kmh NNE 3.0 mph4.8 kmh 29.84 in1010.5 mb 0.00 in0.0 mm 0.00 in0.0 mm 2.45 in62.2 mm
09:15 PM 74.2°F23.4°C 72.0°F22.2°C 93% 1.0 mph NNE1.6 kmh NNE 2.0 mph3.2 kmh 29.84 in1010.5 mb 0.00 in0.0 mm 0.00 in0.0 mm 2.45 in62.2 mm
09:20 PM 74.0°F23.3°C 71.8°F22.1°C 93% Calm Calm 3.0 mph4.8 kmh 29.84 in1010.5 mb 0.00 in0.0 mm 0.00 in0.0 mm 2.45 in62.2 mm
09:25 PM 74.0°F23.3°C 71.8°F22.1°C 93% Calm Calm 3.0 mph4.8 kmh 29.84 in1010.5 mb 0.00 in0.0 mm 0.00 in0.0 mm 2.45 in62.2 mm
09:30 PM 74.0°F23.3°C 71.8°F22.1°C 93% Calm Calm -- 29.84 in1010.5 mb 0.00 in0.0 mm 0.00 in0.0 mm 2.45 in62.2 mm
09:35 PM 74.0°F23.3°C 71.8°F22.1°C 93% Calm Calm -- 29.84 in1010.5 mb 0.00 in0.0 mm 0.00 in0.0 mm 2.45 in62.2 mm
09:40 PM 74.0°F23.3°C 71.8°F22.1°C 93% Calm Calm -- 29.85 in1010.8 mb 0.00 in0.0 mm 0.00 in0.0 mm 2.45 in62.2 mm
09:45 PM 74.0°F23.3°C 71.8°F22.1°C 93% Calm Calm -- 29.84 in1010.5 mb 0.00 in0.0 mm 0.00 in0.0 mm 2.45 in62.2 mm
09:50 PM 74.0°F23.3°C 72.2°F22.3°C 94% Calm Calm -- 29.84 in1010.5 mb 0.00 in0.0 mm 0.00 in0.0 mm 2.45 in62.2 mm
09:55 PM 74.1°F23.4°C 72.3°F22.4°C 94% Calm Calm -- 29.84 in1010.5 mb 0.00 in0.0 mm 0.00 in0.0 mm 2.45 in62.2 mm
10:00 PM 74.2°F23.4°C 72.4°F22.4°C 94% Calm Calm -- 29.83 in1010.2 mb 0.00 in0.0 mm 0.00 in0.0 mm 2.45 in62.2 mm
10:05 PM 74.3°F23.5°C 72.5°F22.5°C 94% Calm Calm 3.0 mph4.8 kmh 29.84 in1010.5 mb 0.00 in0.0 mm 0.00 in0.0 mm 2.45 in62.2 mm
10:10 PM 74.4°F23.6°C 72.6°F22.6°C 94% 1.0 mph NNE1.6 kmh NNE 3.0 mph4.8 kmh 29.85 in1010.8 mb 0.00 in0.0 mm 0.00 in0.0 mm 2.45 in62.2 mm
10:15 PM 74.6°F23.7°C 72.8°F22.7°C 94% 2.0 mph N3.2 kmh N 3.0 mph4.8 kmh 29.85 in1010.8 mb 0.00 in0.0 mm 0.00 in0.0 mm 2.45 in62.2 mm
10:20 PM 74.8°F23.8°C 73.3°F22.9°C 95% 2.0 mph N3.2 kmh N 5.0 mph8.0 kmh 29.85 in1010.8 mb 0.00 in0.0 mm 0.00 in0.0 mm 2.45 in62.2 mm
10:25 PM 74.9°F23.8°C 73.4°F23.0°C 95% 2.0 mph N3.2 kmh N 5.0 mph8.0 kmh 29.85 in1010.8 mb 0.00 in0.0 mm 0.00 in0.0 mm 2.45 in62.2 mm
10:30 PM 74.9°F23.8°C 73.1°F22.8°C 94% 2.0 mph N3.2 kmh N 5.0 mph8.0 kmh 29.85 in1010.8 mb 0.00 in0.0 mm 0.00 in0.0 mm 2.45 in62.2 mm
10:35 PM 75.0°F23.9°C 73.5°F23.1°C 95% 2.0 mph N3.2 kmh N 7.0 mph11.3 kmh 29.85 in1010.8 mb 0.00 in0.0 mm 0.00 in0.0 mm 2.45 in62.2 mm
10:40 PM 75.1°F23.9°C 73.6°F23.1°C 95% 3.0 mph N4.8 kmh N 7.0 mph11.3 kmh 29.86 in1011.2 mb 0.00 in0.0 mm 0.00 in0.0 mm 2.45 in62.2 mm
10:45 PM 75.2°F24.0°C 73.7°F23.2°C 95% 2.0 mph N3.2 kmh N 7.0 mph11.3 kmh 29.86 in1011.2 mb 0.00 in0.0 mm 0.00 in0.0 mm 2.45 in62.2 mm
10:50 PM 75.3°F24.1°C 73.8°F23.2°C 95% 2.0 mph N3.2 kmh N 6.0 mph9.7 kmh 29.86 in1011.2 mb 0.00 in0.0 mm 0.00 in0.0 mm 2.45 in62.2 mm
10:55 PM 75.4°F24.1°C 73.9°F23.3°C 95% 2.0 mph N3.2 kmh N 4.0 mph6.4 kmh 29.86 in1011.2 mb 0.00 in0.0 mm 0.00 in0.0 mm 2.45 in62.2 mm
11:00 PM 75.4°F24.1°C 73.9°F23.3°C 95% 1.0 mph NNW1.6 kmh NNW 3.0 mph4.8 kmh 29.86 in1011.2 mb 0.00 in0.0 mm 0.00 in0.0 mm 2.45 in62.2 mm
11:05 PM 75.4°F24.1°C 73.9°F23.3°C 95% 1.0 mph NNW1.6 kmh NNW 3.0 mph4.8 kmh 29.86 in1011.2 mb 0.00 in0.0 mm 0.00 in0.0 mm 2.45 in62.2 mm
11:10 PM 75.5°F24.2°C 74.0°F23.3°C 95% 1.0 mph NNW1.6 kmh NNW 5.0 mph8.0 kmh 29.86 in1011.2 mb 0.00 in0.0 mm 0.00 in0.0 mm 2.45 in62.2 mm
11:15 PM 75.6°F24.2°C 74.1°F23.4°C 95% 2.0 mph NNW3.2 kmh NNW 5.0 mph8.0 kmh 29.85 in1010.8 mb 0.00 in0.0 mm 0.00 in0.0 mm 2.45 in62.2 mm
11:20 PM 75.6°F24.2°C 74.1°F23.4°C 95% 2.0 mph N3.2 kmh N 5.0 mph8.0 kmh 29.85 in1010.8 mb 0.00 in0.0 mm 0.00 in0.0 mm 2.45 in62.2 mm
11:25 PM 75.7°F24.3°C 74.2°F23.4°C 95% 1.0 mph N1.6 kmh N 5.0 mph8.0 kmh 29.85 in1010.8 mb 0.00 in0.0 mm 0.00 in0.0 mm 2.45 in62.2 mm
11:30 PM 75.6°F24.2°C 74.1°F23.4°C 95% 1.0 mph N1.6 kmh N 5.0 mph8.0 kmh 29.85 in1010.8 mb 0.01 in0.3 mm 0.12 in3.0 mm 2.46 in62.5 mm
11:35 PM 75.6°F24.2°C 74.1°F23.4°C 95% 1.0 mph N1.6 kmh N 4.0 mph6.4 kmh 29.85 in1010.8 mb 0.01 in0.3 mm 0.00 in0.0 mm 2.46 in62.5 mm
11:40 PM 75.6°F24.2°C 74.1°F23.4°C 95% 2.0 mph N3.2 kmh N 5.0 mph8.0 kmh 29.85 in1010.8 mb 0.01 in0.3 mm 0.00 in0.0 mm 2.46 in62.5 mm
11:45 PM 75.6°F24.2°C 74.1°F23.4°C 95% 2.0 mph N3.2 kmh N 5.0 mph8.0 kmh 29.85 in1010.8 mb 0.01 in0.3 mm 0.00 in0.0 mm 2.46 in62.5 mm
11:50 PM 75.6°F24.2°C 74.1°F23.4°C 95% 2.0 mph N3.2 kmh N 5.0 mph8.0 kmh 29.85 in1010.8 mb 0.01 in0.3 mm 0.00 in0.0 mm 2.46 in62.5 mm
11:55 PM 75.6°F24.2°C 73.8°F23.2°C 94% 2.0 mph N3.2 kmh N 5.0 mph8.0 kmh 29.85 in1010.8 mb 0.01 in0.3 mm 0.00 in0.0 mm 2.46 in62.5 mm